sensor_id;sensor_type;location;lat;lon;timestamp;pressure;altitude;pressure_sealevel;temperature;humidity
57616;BME280;43816;52.054;-9.494;2023-07-16T00:00:02;100077.91;;;24.77;38.86
57616;BME280;43816;52.054;-9.494;2023-07-16T00:00:12;100072.25;;;24.72;38.89
57616;BME280;43816;52.054;-9.494;2023-07-16T00:00:22;100073.06;;;24.72;38.71
57616;BME280;43816;52.054;-9.494;2023-07-16T00:00:33;100074.94;;;24.79;38.56
57616;BME280;43816;52.054;-9.494;2023-07-16T00:00:43;100080.44;;;24.79;38.92
57616;BME280;43816;52.054;-9.494;2023-07-16T00:00:53;100076.22;;;24.76;38.94
57616;BME280;43816;52.054;-9.494;2023-07-16T00:01:04;100072.03;;;24.73;38.87
57616;BME280;43816;52.054;-9.494;2023-07-16T00:01:14;100070.69;;;24.76;38.78
57616;BME280;43816;52.054;-9.494;2023-07-16T00:01:24;100070.31;;;24.72;38.72
57616;BME280;43816;52.054;-9.494;2023-07-16T00:01:34;100073.69;;;24.74;38.59
57616;BME280;43816;52.054;-9.494;2023-07-16T00:01:45;100073.22;;;24.78;38.58
57616;BME280;43816;52.054;-9.494;2023-07-16T00:01:56;100064.81;;;24.72;38.68
57616;BME280;43816;52.054;-9.494;2023-07-16T00:02:06;100079.19;;;24.74;38.75
57616;BME280;43816;52.054;-9.494;2023-07-16T00:02:16;100080.03;;;24.75;38.80
57616;BME280;43816;52.054;-9.494;2023-07-16T00:02:26;100057.72;;;24.65;38.78
57616;BME280;43816;52.054;-9.494;2023-07-16T00:02:38;100085.09;;;24.78;38.84
57616;BME280;43816;52.054;-9.494;2023-07-16T00:02:48;100070.09;;;24.74;38.80
57616;BME280;43816;52.054;-9.494;2023-07-16T00:02:58;100065.28;;;24.69;38.75
57616;BME280;43816;52.054;-9.494;2023-07-16T00:03:08;100080.44;;;24.79;38.72
57616;BME280;43816;52.054;-9.494;2023-07-16T00:03:19;100066.75;;;24.72;38.84
57616;BME280;43816;52.054;-9.494;2023-07-16T00:03:29;100070.78;;;24.69;38.87
57616;BME280;43816;52.054;-9.494;2023-07-16T00:03:39;100076.84;;;24.78;38.83
57616;BME280;43816;52.054;-9.494;2023-07-16T00:03:50;100053.50;;;24.62;38.86
57616;BME280;43816;52.054;-9.494;2023-07-16T00:04:00;100079.59;;;24.78;38.98
57616;BME280;43816;52.054;-9.494;2023-07-16T00:04:10;100070.31;;;24.72;38.69
57616;BME280;43816;52.054;-9.494;2023-07-16T00:04:20;100075.38;;;24.75;38.82
57616;BME280;43816;52.054;-9.494;2023-07-16T00:04:32;100072.41;;;24.77;38.79
57616;BME280;43816;52.054;-9.494;2023-07-16T00:04:42;100077.28;;;24.75;38.70
57616;BME280;43816;52.054;-9.494;2023-07-16T00:04:52;100075.00;;;24.72;38.90
57616;BME280;43816;52.054;-9.494;2023-07-16T00:05:03;100077.06;;;24.77;38.97
57616;BME280;43816;52.054;-9.494;2023-07-16T00:05:13;100074.31;;;24.77;38.92
57616;BME280;43816;52.054;-9.494;2023-07-16T00:05:23;100071.41;;;24.71;38.92
57616;BME280;43816;52.054;-9.494;2023-07-16T00:05:35;100065.72;;;24.66;38.68
57616;BME280;43816;52.054;-9.494;2023-07-16T00:05:49;100069.13;;;24.68;38.84
57616;BME280;43816;52.054;-9.494;2023-07-16T00:06:00;100060.00;;;24.68;38.60
57616;BME280;43816;52.054;-9.494;2023-07-16T00:06:10;100071.41;;;24.71;38.80
57616;BME280;43816;52.054;-9.494;2023-07-16T00:06:20;100071.16;;;24.73;39.05
57616;BME280;43816;52.054;-9.494;2023-07-16T00:06:31;100068.03;;;24.69;38.74
57616;BME280;43816;52.054;-9.494;2023-07-16T00:06:41;100057.31;;;24.61;38.80
57616;BME280;43816;52.054;-9.494;2023-07-16T00:06:51;100075.00;;;24.72;38.85
57616;BME280;43816;52.054;-9.494;2023-07-16T00:07:02;100072.84;;;24.74;38.82
57616;BME280;43816;52.054;-9.494;2023-07-16T00:07:12;100067.41;;;24.67;38.77
57616;BME280;43816;52.054;-9.494;2023-07-16T00:07:22;100072.03;;;24.73;38.73
57616;BME280;43816;52.054;-9.494;2023-07-16T00:07:32;100063.22;;;24.65;38.64
57616;BME280;43816;52.054;-9.494;2023-07-16T00:07:43;100066.13;;;24.70;38.82
57616;BME280;43816;52.054;-9.494;2023-07-16T00:07:53;100075.38;;;24.75;38.75
57616;BME280;43816;52.054;-9.494;2023-07-16T00:08:03;100074.53;;;24.75;38.71
57616;BME280;43816;52.054;-9.494;2023-07-16T00:08:14;100075.81;;;24.72;38.81
57616;BME280;43816;52.054;-9.494;2023-07-16T00:08:24;100061.91;;;24.67;38.76
57616;BME280;43816;52.054;-9.494;2023-07-16T00:08:34;100060.22;;;24.66;38.67
57616;BME280;43816;52.054;-9.494;2023-07-16T00:08:45;100075.81;;;24.72;38.80
57616;BME280;43816;52.054;-9.494;2023-07-16T00:08:55;100080.88;;;24.75;38.93
57616;BME280;43816;52.054;-9.494;2023-07-16T00:09:05;100076.44;;;24.74;38.70
57616;BME280;43816;52.054;-9.494;2023-07-16T00:09:16;100071.63;;;24.70;38.91
57616;BME280;43816;52.054;-9.494;2023-07-16T00:09:26;100070.31;;;24.72;38.87
57616;BME280;43816;52.054;-9.494;2023-07-16T00:09:36;100084.69;;;24.74;38.90
57616;BME280;43816;52.054;-9.494;2023-07-16T00:09:46;100079.19;;;24.74;38.93
57616;BME280;43816;52.054;-9.494;2023-07-16T00:09:57;100079.66;;;24.71;38.59
57616;BME280;43816;52.054;-9.494;2023-07-16T00:10:07;100067.41;;;24.67;38.87
57616;BME280;43816;52.054;-9.494;2023-07-16T00:10:18;100083.03;;;24.73;38.58
57616;BME280;43816;52.054;-9.494;2023-07-16T00:10:28;100075.22;;;24.70;38.77
57616;BME280;43816;52.054;-9.494;2023-07-16T00:10:39;100069.34;;;24.67;38.85
57616;BME280;43816;52.054;-9.494;2023-07-16T00:10:49;100072.47;;;24.70;39.05
57616;BME280;43816;52.054;-9.494;2023-07-16T00:10:59;100041.56;;;24.50;38.71
57616;BME280;43816;52.054;-9.494;2023-07-16T00:11:10;100079.66;;;24.71;39.00
57616;BME280;43816;52.054;-9.494;2023-07-16T00:11:20;100070.78;;;24.69;38.77
57616;BME280;43816;52.054;-9.494;2023-07-16T00:11:30;100062.38;;;24.64;38.81
57616;BME280;43816;52.054;-9.494;2023-07-16T00:11:40;100073.53;;;24.69;38.84
57616;BME280;43816;52.054;-9.494;2023-07-16T00:11:51;100075.22;;;24.70;38.69
57616;BME280;43816;52.054;-9.494;2023-07-16T00:12:02;100072.09;;;24.67;38.62
57616;BME280;43816;52.054;-9.494;2023-07-16T00:12:12;100077.97;;;24.70;38.93
57616;BME280;43816;52.054;-9.494;2023-07-16T00:12:22;100073.53;;;24.69;38.92
57616;BME280;43816;52.054;-9.494;2023-07-16T00:12:33;100073.75;;;24.68;39.06
57616;BME280;43816;52.054;-9.494;2023-07-16T00:12:43;100066.22;;;24.63;38.84
57616;BME280;43816;52.054;-9.494;2023-07-16T00:12:53;100068.31;;;24.61;38.65
57616;BME280;43816;52.054;-9.494;2023-07-16T00:13:04;100080.50;;;24.72;38.61
57616;BME280;43816;52.054;-9.494;2023-07-16T00:13:14;100075.66;;;24.67;38.67
57616;BME280;43816;52.054;-9.494;2023-07-16T00:13:25;100058.41;;;24.60;38.65
57616;BME280;43816;52.054;-9.494;2023-07-16T00:13:36;100079.91;;;24.70;38.58
57616;BME280;43816;52.054;-9.494;2023-07-16T00:13:46;100053.34;;;24.57;38.73
57616;BME280;43816;52.054;-9.494;2023-07-16T00:13:57;100078.41;;;24.67;38.59
57616;BME280;43816;52.054;-9.494;2023-07-16T00:14:07;100074.63;;;24.68;38.84
57616;BME280;43816;52.054;-9.494;2023-07-16T00:14:17;100075.06;;;24.65;39.04
57616;BME280;43816;52.054;-9.494;2023-07-16T00:14:28;100088.53;;;24.73;38.83
57616;BME280;43816;52.054;-9.494;2023-07-16T00:14:38;100076.28;;;24.69;38.83
57616;BME280;43816;52.054;-9.494;2023-07-16T00:14:48;100072.31;;;24.65;38.79
57616;BME280;43816;52.054;-9.494;2023-07-16T00:14:59;100076.56;;;24.61;38.78
57616;BME280;43816;52.054;-9.494;2023-07-16T00:15:09;100075.91;;;24.66;38.76
57616;BME280;43816;52.054;-9.494;2023-07-16T00:15:20;100070.00;;;24.62;38.80
57616;BME280;43816;52.054;-9.494;2023-07-16T00:15:30;100092.34;;;24.72;38.68
57616;BME280;43816;52.054;-9.494;2023-07-16T00:15:41;100075.28;;;24.64;38.70
57616;BME280;43816;52.054;-9.494;2023-07-16T00:15:51;100086.22;;;24.70;38.87
57616;BME280;43816;52.054;-9.494;2023-07-16T00:16:01;100075.28;;;24.64;38.94
57616;BME280;43816;52.054;-9.494;2023-07-16T00:16:12;100093.41;;;24.71;38.80
57616;BME280;43816;52.054;-9.494;2023-07-16T00:16:23;100096.16;;;24.71;39.00
57616;BME280;43816;52.054;-9.494;2023-07-16T00:16:33;100086.84;;;24.72;38.64
57616;BME280;43816;52.054;-9.494;2023-07-16T00:16:43;100080.13;;;24.68;38.91
57616;BME280;43816;52.054;-9.494;2023-07-16T00:16:53;100085.63;;;24.68;38.84
57616;BME280;43816;52.054;-9.494;2023-07-16T00:17:04;100086.44;;;24.69;38.74
57616;BME280;43816;52.054;-9.494;2023-07-16T00:17:14;100084.75;;;24.68;38.77
57616;BME280;43816;52.054;-9.494;2023-07-16T00:17:24;100079.25;;;24.68;38.88
57616;BME280;43816;52.054;-9.494;2023-07-16T00:17:35;100089.59;;;24.72;38.72
57616;BME280;43816;52.054;-9.494;2023-07-16T00:17:45;100071.06;;;24.61;38.80
57616;BME280;43816;52.054;-9.494;2023-07-16T00:17:55;100090.25;;;24.68;38.73
57616;BME280;43816;52.054;-9.494;2023-07-16T00:18:06;100075.50;;;24.62;38.87
57616;BME280;43816;52.054;-9.494;2023-07-16T00:18:16;100081.84;;;24.63;38.87
57616;BME280;43816;52.054;-9.494;2023-07-16T00:18:26;100097.22;;;24.70;38.93
57616;BME280;43816;52.054;-9.494;2023-07-16T00:18:36;100071.47;;;24.65;38.65
57616;BME280;43816;52.054;-9.494;2023-07-16T00:18:47;100079.72;;;24.65;38.76
57616;BME280;43816;52.054;-9.494;2023-07-16T00:18:57;100080.56;;;24.65;38.70
57616;BME280;43816;52.054;-9.494;2023-07-16T00:19:10;100083.53;;;24.64;38.79
57616;BME280;43816;52.054;-9.494;2023-07-16T00:19:20;100088.22;;;24.63;38.71
57616;BME280;43816;52.054;-9.494;2023-07-16T00:19:30;100077.28;;;24.56;38.75
57616;BME280;43816;52.054;-9.494;2023-07-16T00:19:41;100084.97;;;24.66;38.83
57616;BME280;43816;52.054;-9.494;2023-07-16T00:19:51;100065.59;;;24.54;38.68
57616;BME280;43816;52.054;-9.494;2023-07-16T00:20:02;100091.56;;;24.65;38.93
57616;BME280;43816;52.054;-9.494;2023-07-16T00:20:12;100087.72;;;24.66;38.80
57616;BME280;43816;52.054;-9.494;2023-07-16T00:20:22;100082.22;;;24.66;38.92
57616;BME280;43816;52.054;-9.494;2023-07-16T00:20:33;100087.72;;;24.66;38.93
57616;BME280;43816;52.054;-9.494;2023-07-16T00:20:43;100082.28;;;24.60;38.88
57616;BME280;43816;52.054;-9.494;2023-07-16T00:20:53;100091.94;;;24.69;38.62
57616;BME280;43816;52.054;-9.494;2023-07-16T00:21:03;100100.19;;;24.69;38.66
57616;BME280;43816;52.054;-9.494;2023-07-16T00:21:14;100083.53;;;24.64;38.65
57616;BME280;43816;52.054;-9.494;2023-07-16T00:21:24;100092.16;;;24.67;38.63
57616;BME280;43816;52.054;-9.494;2023-07-16T00:21:35;100095.38;;;24.64;38.78
57616;BME280;43816;52.054;-9.494;2023-07-16T00:21:45;100091.56;;;24.65;38.78
57616;BME280;43816;52.054;-9.494;2023-07-16T00:21:55;100094.31;;;24.65;38.49
57616;BME280;43816;52.054;-9.494;2023-07-16T00:22:05;100083.38;;;24.59;38.82
57616;BME280;43816;52.054;-9.494;2023-07-16T00:22:16;100093.22;;;24.66;38.95
57616;BME280;43816;52.054;-9.494;2023-07-16T00:22:26;100091.19;;;24.62;38.73
57616;BME280;43816;52.054;-9.494;2023-07-16T00:22:36;100096.25;;;24.65;38.80
57616;BME280;43816;52.054;-9.494;2023-07-16T00:22:47;100097.44;;;24.69;38.76
57616;BME280;43816;52.054;-9.494;2023-07-16T00:22:57;100083.16;;;24.60;38.80
57616;BME280;43816;52.054;-9.494;2023-07-16T00:23:07;100101.25;;;24.68;38.82
57616;BME280;43816;52.054;-9.494;2023-07-16T00:23:17;100090.97;;;24.63;38.71
57616;BME280;43816;52.054;-9.494;2023-07-16T00:23:28;100083.16;;;24.60;38.65
57616;BME280;43816;52.054;-9.494;2023-07-16T00:23:38;100086.97;;;24.59;38.97
57616;BME280;43816;52.054;-9.494;2023-07-16T00:23:48;100089.88;;;24.64;38.72
57616;BME280;43816;52.054;-9.494;2023-07-16T00:23:59;100099.38;;;24.68;38.91
57616;BME280;43816;52.054;-9.494;2023-07-16T00:24:09;100100.44;;;24.67;38.76
57616;BME280;43816;52.054;-9.494;2023-07-16T00:24:19;100078.94;;;24.58;38.58
57616;BME280;43816;52.054;-9.494;2023-07-16T00:24:30;100081.47;;;24.59;38.88
57616;BME280;43816;52.054;-9.494;2023-07-16T00:24:40;100097.44;;;24.69;38.68
57616;BME280;43816;52.054;-9.494;2023-07-16T00:24:50;100097.06;;;24.65;38.69
57616;BME280;43816;52.054;-9.494;2023-07-16T00:25:00;100097.69;;;24.67;38.63
57616;BME280;43816;52.054;-9.494;2023-07-16T00:25:11;100090.31;;;24.61;38.87
57616;BME280;43816;52.054;-9.494;2023-07-16T00:25:21;100094.94;;;24.67;38.76
57616;BME280;43816;52.054;-9.494;2023-07-16T00:25:31;100085.31;;;24.58;38.90
57616;BME280;43816;52.054;-9.494;2023-07-16T00:25:42;100092.63;;;24.64;38.68
57616;BME280;43816;52.054;-9.494;2023-07-16T00:25:52;100096.47;;;24.63;38.93
57616;BME280;43816;52.054;-9.494;2023-07-16T00:26:02;100098.72;;;24.66;39.05
57616;BME280;43816;52.054;-9.494;2023-07-16T00:26:13;100092.41;;;24.66;38.93
57616;BME280;43816;52.054;-9.494;2023-07-16T00:26:23;100077.50;;;24.55;38.76
57616;BME280;43816;52.054;-9.494;2023-07-16T00:26:34;100093.94;;;24.62;38.73
57616;BME280;43816;52.054;-9.494;2023-07-16T00:26:44;100093.72;;;24.63;38.89
57616;BME280;43816;52.054;-9.494;2023-07-16T00:26:54;100089.94;;;24.58;38.88
57616;BME280;43816;52.054;-9.494;2023-07-16T00:27:05;100093.50;;;24.65;38.98
57616;BME280;43816;52.054;-9.494;2023-07-16T00:27:15;100105.09;;;24.67;38.66
57616;BME280;43816;52.054;-9.494;2023-07-16T00:27:25;100095.38;;;24.64;38.91
57616;BME280;43816;52.054;-9.494;2023-07-16T00:27:36;100103.84;;;24.63;38.90
57616;BME280;43816;52.054;-9.494;2023-07-16T00:27:46;100083.59;;;24.57;38.93
57616;BME280;43816;52.054;-9.494;2023-07-16T00:27:57;100090.81;;;24.58;38.89
57616;BME280;43816;52.054;-9.494;2023-07-16T00:28:07;100078.53;;;24.54;38.54
57616;BME280;43816;52.054;-9.494;2023-07-16T00:28:17;100085.31;;;24.58;38.63
57616;BME280;43816;52.054;-9.494;2023-07-16T00:28:29;100094.75;;;24.62;38.89
57616;BME280;43816;52.054;-9.494;2023-07-16T00:28:39;100099.59;;;24.67;38.70
57616;BME280;43816;52.054;-9.494;2023-07-16T00:28:49;100094.75;;;24.62;38.82
57616;BME280;43816;52.054;-9.494;2023-07-16T00:29:00;100103.41;;;24.66;38.74
57616;BME280;43816;52.054;-9.494;2023-07-16T00:29:10;100085.31;;;24.58;38.81
57616;BME280;43816;52.054;-9.494;2023-07-16T00:29:20;100098.72;;;24.66;38.90
57616;BME280;43816;52.054;-9.494;2023-07-16T00:29:30;100098.72;;;24.66;38.74
57616;BME280;43816;52.054;-9.494;2023-07-16T00:29:41;100094.31;;;24.65;38.77
57616;BME280;43816;52.054;-9.494;2023-07-16T00:29:51;100094.53;;;24.64;38.80
57616;BME280;43816;52.054;-9.494;2023-07-16T00:30:02;100070.72;;;24.51;38.93
57616;BME280;43816;52.054;-9.494;2023-07-16T00:30:12;100092.63;;;24.64;38.80
57616;BME280;43816;52.054;-9.494;2023-07-16T00:30:23;100090.97;;;24.63;38.87
57616;BME280;43816;52.054;-9.494;2023-07-16T00:30:33;100095.38;;;24.64;38.79
57616;BME280;43816;52.054;-9.494;2023-07-16T00:30:43;100095.59;;;24.63;39.20
57616;BME280;43816;52.054;-9.494;2023-07-16T00:30:54;100098.72;;;24.66;38.77
57616;BME280;43816;52.054;-9.494;2023-07-16T00:31:04;100099.22;;;24.63;38.85
57616;BME280;43816;52.054;-9.494;2023-07-16T00:31:14;100086.97;;;24.59;38.81
57616;BME280;43816;52.054;-9.494;2023-07-16T00:31:25;100096.47;;;24.63;38.27
57616;BME280;43816;52.054;-9.494;2023-07-16T00:31:35;100083.59;;;24.57;38.58
57616;BME280;43816;52.054;-9.494;2023-07-16T00:31:45;100097.06;;;24.65;39.07
57616;BME280;43816;52.054;-9.494;2023-07-16T00:31:55;100088.66;;;24.60;38.71
57616;BME280;43816;52.054;-9.494;2023-07-16T00:32:06;100096.25;;;24.65;38.84
57616;BME280;43816;52.054;-9.494;2023-07-16T00:32:16;100103.03;;;24.62;38.86
57616;BME280;43816;52.054;-9.494;2023-07-16T00:32:27;100087.41;;;24.56;38.54
57616;BME280;43816;52.054;-9.494;2023-07-16T00:32:38;100097.06;;;24.65;38.93
57616;BME280;43816;52.054;-9.494;2023-07-16T00:32:48;100087.41;;;24.56;38.89
57616;BME280;43816;52.054;-9.494;2023-07-16T00:32:58;100070.13;;;24.49;38.54
57616;BME280;43816;52.054;-9.494;2023-07-16T00:33:09;100092.00;;;24.62;38.86
57616;BME280;43816;52.054;-9.494;2023-07-16T00:33:19;100098.13;;;24.64;38.75
57616;BME280;43816;52.054;-9.494;2023-07-16T00:33:29;100102.56;;;24.65;38.84
57616;BME280;43816;52.054;-9.494;2023-07-16T00:33:39;100099.22;;;24.63;38.64
57616;BME280;43816;52.054;-9.494;2023-07-16T00:33:50;100093.72;;;24.63;38.73
57616;BME280;43816;52.054;-9.494;2023-07-16T00:34:00;100073.03;;;24.54;38.67
57616;BME280;43816;52.054;-9.494;2023-07-16T00:34:10;100092.47;;;24.59;38.81
57616;BME280;43816;52.054;-9.494;2023-07-16T00:34:20;100090.97;;;24.63;38.78
57616;BME280;43816;52.054;-9.494;2023-07-16T00:34:31;100091.41;;;24.60;38.74
57616;BME280;43816;52.054;-9.494;2023-07-16T00:34:41;100093.72;;;24.63;38.74
57616;BME280;43816;52.054;-9.494;2023-07-16T00:34:51;100087.78;;;24.60;38.65
57616;BME280;43816;52.054;-9.494;2023-07-16T00:35:02;100083.59;;;24.57;38.80
57616;BME280;43816;52.054;-9.494;2023-07-16T00:35:12;100087.78;;;24.60;38.72
57616;BME280;43816;52.054;-9.494;2023-07-16T00:35:22;100085.31;;;24.58;38.61
57616;BME280;43816;52.054;-9.494;2023-07-16T00:35:33;100096.47;;;24.63;38.79
57616;BME280;43816;52.054;-9.494;2023-07-16T00:35:47;100090.53;;;24.60;38.64
57616;BME280;43816;52.054;-9.494;2023-07-16T00:35:58;100092.47;;;24.59;38.90
57616;BME280;43816;52.054;-9.494;2023-07-16T00:36:08;100088.66;;;24.60;38.76
57616;BME280;43816;52.054;-9.494;2023-07-16T00:36:18;100081.91;;;24.56;38.82
57616;BME280;43816;52.054;-9.494;2023-07-16T00:36:29;100093.72;;;24.63;39.01
57616;BME280;43816;52.054;-9.494;2023-07-16T00:36:39;100096.47;;;24.63;39.01
57616;BME280;43816;52.054;-9.494;2023-07-16T00:36:50;100086.34;;;24.57;38.79
57616;BME280;43816;52.054;-9.494;2023-07-16T00:37:00;100092.25;;;24.61;38.88
57616;BME280;43816;52.054;-9.494;2023-07-16T00:37:11;100101.31;;;24.61;38.88
57616;BME280;43816;52.054;-9.494;2023-07-16T00:37:21;100098.56;;;24.61;38.71
57616;BME280;43816;52.054;-9.494;2023-07-16T00:37:32;100092.47;;;24.59;38.94
57616;BME280;43816;52.054;-9.494;2023-07-16T00:37:42;100094.16;;;24.60;39.00
57616;BME280;43816;52.054;-9.494;2023-07-16T00:37:53;100093.28;;;24.60;38.72
57616;BME280;43816;52.054;-9.494;2023-07-16T00:38:03;100088.66;;;24.60;38.95
57616;BME280;43816;52.054;-9.494;2023-07-16T00:38:13;100094.75;;;24.62;38.79
57616;BME280;43816;52.054;-9.494;2023-07-16T00:38:24;100096.47;;;24.63;38.62
57616;BME280;43816;52.054;-9.494;2023-07-16T00:38:34;100082.56;;;24.58;38.88
57616;BME280;43816;52.054;-9.494;2023-07-16T00:38:44;100097.53;;;24.62;38.78
57616;BME280;43816;52.054;-9.494;2023-07-16T00:38:55;100094.16;;;24.60;38.71
57616;BME280;43816;52.054;-9.494;2023-07-16T00:39:05;100089.09;;;24.57;38.68
57616;BME280;43816;52.054;-9.494;2023-07-16T00:39:15;100100.28;;;24.62;38.93
57616;BME280;43816;52.054;-9.494;2023-07-16T00:39:25;100095.81;;;24.61;38.78
57616;BME280;43816;52.054;-9.494;2023-07-16T00:39:36;100090.81;;;24.58;38.74
57616;BME280;43816;52.054;-9.494;2023-07-16T00:39:46;100089.94;;;24.58;38.76
57616;BME280;43816;52.054;-9.494;2023-07-16T00:39:56;100095.81;;;24.61;38.82
57616;BME280;43816;52.054;-9.494;2023-07-16T00:40:07;100097.53;;;24.62;38.79
57616;BME280;43816;52.054;-9.494;2023-07-16T00:40:18;100093.06;;;24.61;38.75
57616;BME280;43816;52.054;-9.494;2023-07-16T00:40:28;100035.47;;;24.23;38.65
57616;BME280;43816;52.054;-9.494;2023-07-16T00:40:38;100077.69;;;24.53;38.59
57616;BME280;43816;52.054;-9.494;2023-07-16T00:40:49;100074.38;;;24.45;38.82
57616;BME280;43816;52.054;-9.494;2023-07-16T00:41:00;100092.47;;;24.59;38.95
57616;BME280;43816;52.054;-9.494;2023-07-16T00:41:10;100093.06;;;24.61;38.57
57616;BME280;43816;52.054;-9.494;2023-07-16T00:41:20;100087.84;;;24.53;38.68
57616;BME280;43816;52.054;-9.494;2023-07-16T00:41:30;100086.34;;;24.57;38.72
57616;BME280;43816;52.054;-9.494;2023-07-16T00:41:41;100089.53;;;24.54;39.01
57616;BME280;43816;52.054;-9.494;2023-07-16T00:41:51;100095.00;;;24.61;38.33
57616;BME280;43816;52.054;-9.494;2023-07-16T00:42:01;100093.56;;;24.58;38.76
57616;BME280;43816;52.054;-9.494;2023-07-16T00:42:12;100101.31;;;24.61;38.72
57616;BME280;43816;52.054;-9.494;2023-07-16T00:42:22;100086.78;;;24.54;38.64
57616;BME280;43816;52.054;-9.494;2023-07-16T00:42:32;100084.84;;;24.54;38.91
57616;BME280;43816;52.054;-9.494;2023-07-16T00:42:43;100101.81;;;24.58;38.61
57616;BME280;43816;52.054;-9.494;2023-07-16T00:42:53;100098.56;;;24.61;38.96
57616;BME280;43816;52.054;-9.494;2023-07-16T00:43:03;100092.25;;;24.61;38.72
57616;BME280;43816;52.054;-9.494;2023-07-16T00:43:14;100088.28;;;24.56;38.89
57616;BME280;43816;52.054;-9.494;2023-07-16T00:43:24;100096.31;;;24.58;38.74
57616;BME280;43816;52.054;-9.494;2023-07-16T00:43:34;100094.59;;;24.57;38.75
57616;BME280;43816;52.054;-9.494;2023-07-16T00:43:45;100104.06;;;24.61;38.94
57616;BME280;43816;52.054;-9.494;2023-07-16T00:43:55;100088.28;;;24.56;38.75
57616;BME280;43816;52.054;-9.494;2023-07-16T00:44:05;100084.47;;;24.51;38.88
57616;BME280;43816;52.054;-9.494;2023-07-16T00:44:16;100092.91;;;24.56;38.83
57616;BME280;43816;52.054;-9.494;2023-07-16T00:44:26;100093.09;;;24.54;38.67
57616;BME280;43816;52.054;-9.494;2023-07-16T00:44:36;100092.28;;;24.54;38.87
57616;BME280;43816;52.054;-9.494;2023-07-16T00:44:46;100092.69;;;24.58;39.11
57616;BME280;43816;52.054;-9.494;2023-07-16T00:44:57;100082.34;;;24.53;38.95
57616;BME280;43816;52.054;-9.494;2023-07-16T00:45:11;100099.66;;;24.60;38.89
57616;BME280;43816;52.054;-9.494;2023-07-16T00:45:22;100105.16;;;24.60;38.60
57616;BME280;43816;52.054;-9.494;2023-07-16T00:45:32;100099.66;;;24.60;38.85
57616;BME280;43816;52.054;-9.494;2023-07-16T00:45:45;100101.81;;;24.58;39.05
57616;BME280;43816;52.054;-9.494;2023-07-16T00:45:55;100100.72;;;24.59;38.78
57616;BME280;43816;52.054;-9.494;2023-07-16T00:46:06;100095.66;;;24.56;38.70
57616;BME280;43816;52.054;-9.494;2023-07-16T00:46:17;100102.63;;;24.59;38.97
57616;BME280;43816;52.054;-9.494;2023-07-16T00:46:28;100098.19;;;24.58;38.97
57616;BME280;43816;52.054;-9.494;2023-07-16T00:46:38;100094.00;;;24.55;39.09
57616;BME280;43816;52.054;-9.494;2023-07-16T00:46:49;100097.13;;;24.59;38.92
57616;BME280;43816;52.054;-9.494;2023-07-16T00:47:00;100096.75;;;24.55;38.81
57616;BME280;43816;52.054;-9.494;2023-07-16T00:47:11;100093.09;;;24.54;38.68
57616;BME280;43816;52.054;-9.494;2023-07-16T00:47:22;100100.72;;;24.59;38.95
57616;BME280;43816;52.054;-9.494;2023-07-16T00:47:32;100095.03;;;24.54;38.76
57616;BME280;43816;52.054;-9.494;2023-07-16T00:47:43;100082.81;;;24.50;38.88
57616;BME280;43816;52.054;-9.494;2023-07-16T00:47:54;100100.09;;;24.57;38.80
57616;BME280;43816;52.054;-9.494;2023-07-16T00:48:05;100100.09;;;24.57;38.97
57616;BME280;43816;52.054;-9.494;2023-07-16T00:48:16;100103.47;;;24.59;39.03
57616;BME280;43816;52.054;-9.494;2023-07-16T00:48:28;100098.78;;;24.60;38.80
57616;BME280;43816;52.054;-9.494;2023-07-16T00:48:40;100099.88;;;24.59;38.89
57616;BME280;43816;52.054;-9.494;2023-07-16T00:48:52;100105.84;;;24.55;38.99
57616;BME280;43816;52.054;-9.494;2023-07-16T00:49:02;100100.34;;;24.55;38.78
57616;BME280;43816;52.054;-9.494;2023-07-16T00:49:13;100095.84;;;24.54;38.84
57616;BME280;43816;52.054;-9.494;2023-07-16T00:49:24;100096.94;;;24.53;38.82
57616;BME280;43816;52.054;-9.494;2023-07-16T00:49:34;100088.91;;;24.52;38.90
57616;BME280;43816;52.054;-9.494;2023-07-16T00:49:45;100101.16;;;24.56;38.68
57616;BME280;43816;52.054;-9.494;2023-07-16T00:49:55;100097.16;;;24.52;38.63
57616;BME280;43816;52.054;-9.494;2023-07-16T00:50:07;100105.59;;;24.57;38.87
57616;BME280;43816;52.054;-9.494;2023-07-16T00:50:18;100100.09;;;24.57;38.81
57616;BME280;43816;52.054;-9.494;2023-07-16T00:50:29;100095.84;;;24.54;38.82
57616;BME280;43816;52.054;-9.494;2023-07-16T00:50:40;100102.25;;;24.55;38.93
57616;BME280;43816;52.054;-9.494;2023-07-16T00:50:52;100100.97;;;24.51;38.65
57616;BME280;43816;52.054;-9.494;2023-07-16T00:51:02;100105.59;;;24.57;38.82
57616;BME280;43816;52.054;-9.494;2023-07-16T00:51:13;100105.59;;;24.57;38.88
57616;BME280;43816;52.054;-9.494;2023-07-16T00:51:24;100108.34;;;24.57;38.93
57616;BME280;43816;52.054;-9.494;2023-07-16T00:51:36;100099.91;;;24.52;38.96
57616;BME280;43816;52.054;-9.494;2023-07-16T00:51:46;100103.69;;;24.58;38.67
57616;BME280;43816;52.054;-9.494;2023-07-16T00:51:58;100107.31;;;24.58;38.73
57616;BME280;43816;52.054;-9.494;2023-07-16T00:52:11;100107.31;;;24.58;38.92
57616;BME280;43816;52.054;-9.494;2023-07-16T00:52:24;100097.63;;;24.49;38.91
57616;BME280;43816;52.054;-9.494;2023-07-16T00:52:34;100096.56;;;24.50;39.04
57616;BME280;43816;52.054;-9.494;2023-07-16T00:52:45;100105.59;;;24.57;38.89
57616;BME280;43816;52.054;-9.494;2023-07-16T00:52:55;100104.31;;;24.53;38.93
57616;BME280;43816;52.054;-9.494;2023-07-16T00:53:06;100100.53;;;24.54;38.78
57616;BME280;43816;52.054;-9.494;2023-07-16T00:53:17;100116.59;;;24.57;38.92
57616;BME280;43816;52.054;-9.494;2023-07-16T00:53:29;100103.28;;;24.54;38.90
57616;BME280;43816;52.054;-9.494;2023-07-16T00:53:41;100099.31;;;24.50;38.71
57616;BME280;43816;52.054;-9.494;2023-07-16T00:53:52;100106.84;;;24.54;38.82
57616;BME280;43816;52.054;-9.494;2023-07-16T00:54:02;100103.28;;;24.54;38.87
57616;BME280;43816;52.054;-9.494;2023-07-16T00:54:12;100102.84;;;24.57;38.76